createdAt,value
2023-03-21T00:01:14.446Z,94.57
2023-03-21T00:03:44.234Z,94.40
2023-03-21T00:06:14.403Z,94.03
2023-03-21T00:08:42.799Z,93.86
2023-03-21T00:11:12.887Z,94.17
2023-03-21T00:13:42.406Z,94.49
2023-03-21T00:16:20.963Z,94.57
2023-03-21T00:18:58.963Z,94.84
2023-03-21T00:22:03.704Z,94.87
2023-03-21T00:24:22.117Z,94.38
2023-03-21T00:26:51.028Z,94.04
2023-03-21T00:29:19.243Z,93.57
2023-03-21T00:31:48.182Z,93.62
2023-03-21T00:34:22.748Z,93.34
2023-03-21T00:37:01.703Z,93.31
2023-03-21T00:39:29.934Z,92.96
2023-03-21T00:41:58.074Z,93.13
2023-03-21T00:44:26.317Z,92.39
2023-03-21T00:47:06.663Z,92.40
2023-03-21T00:49:38.568Z,92.53
2023-03-21T00:52:17.110Z,92.15
2023-03-21T00:54:48.435Z,91.54
2023-03-21T00:57:16.893Z,91.74
2023-03-21T00:59:45.242Z,91.87
2023-03-21T01:02:22.597Z,91.86
2023-03-21T01:04:52.232Z,92.35
2023-03-21T01:07:20.540Z,92.49
2023-03-21T01:09:48.823Z,92.89
2023-03-21T01:12:17.049Z,93.22
2023-03-21T01:14:45.222Z,92.94
2023-03-21T01:17:13.453Z,92.88
2023-03-21T01:19:51.568Z,92.91
2023-03-21T01:22:22.190Z,92.86
2023-03-21T01:24:58.669Z,92.60
2023-03-21T01:27:31.592Z,93.06
2023-03-21T01:29:59.873Z,92.31
2023-03-21T01:32:28.316Z,92.49
2023-03-21T01:34:56.659Z,92.61
2023-03-21T01:37:26.602Z,92.43
2023-03-21T01:39:54.820Z,92.06
2023-03-21T01:42:23.544Z,91.61
2023-03-21T01:44:55.406Z,91.75
2023-03-21T01:47:24.016Z,91.36
2023-03-21T01:50:06.940Z,91.18
2023-03-21T01:52:50.016Z,90.98
2023-03-21T01:55:25.934Z,90.02
2023-03-21T01:58:12.749Z,89.64
2023-03-21T02:01:00.769Z,89.51
2023-03-21T02:03:49.955Z,89.48
2023-03-21T02:06:35.395Z,88.92
2023-03-21T02:09:17.842Z,88.84
2023-03-21T02:11:47.717Z,88.94
2023-03-21T02:14:29.080Z,89.44
2023-03-21T02:17:11.401Z,89.54
2023-03-21T02:20:00.691Z,89.96
2023-03-21T02:23:01.334Z,89.97
2023-03-21T02:25:53.344Z,89.59
2023-03-21T02:28:27.212Z,89.50
2023-03-21T02:31:14.506Z,89.57
2023-03-21T02:34:07.730Z,89.86
2023-03-21T02:36:51.732Z,90.22
2023-03-21T02:39:27.360Z,90.28
2023-03-21T02:42:04.437Z,90.25
2023-03-21T02:44:43.574Z,89.92
2023-03-21T02:47:53.522Z,89.92
2023-03-21T02:50:27.463Z,90.18
2023-03-21T02:52:58.634Z,90.70
2023-03-21T02:55:31.420Z,91.23
2023-03-21T02:58:12.307Z,92.17
2023-03-21T03:00:46.072Z,93.00
2023-03-21T03:03:33.680Z,93.15
2023-03-21T03:06:08.554Z,92.91
2023-03-21T03:09:01.413Z,93.18
2023-03-21T03:11:32.524Z,93.08
2023-03-21T03:14:53.020Z,93.96
2023-03-21T03:17:24.279Z,94.07
2023-03-21T03:20:16.151Z,93.57
2023-03-21T03:22:53.980Z,93.86
2023-03-21T03:25:41.723Z,93.86
2023-03-21T03:28:15.029Z,93.65
2023-03-21T03:30:57.102Z,93.97
2023-03-21T03:33:35.309Z,94.61
2023-03-21T03:36:06.935Z,95.11
2023-03-21T03:38:39.806Z,95.29
2023-03-21T03:41:14.679Z,96.38
2023-03-21T03:43:54.922Z,96.97
2023-03-21T03:46:31.739Z,98.86
2023-03-21T03:49:03.316Z,100.00
2023-03-21T03:51:36.953Z,100.00
2023-03-21T03:54:15.565Z,100.00
2023-03-21T03:56:46.858Z,100.00
2023-03-21T03:59:19.453Z,100.00
2023-03-21T04:02:08.033Z,100.00
2023-03-21T04:04:37.569Z,100.00
2023-03-21T04:07:06.407Z,100.00
2023-03-21T04:09:44.229Z,100.00
2023-03-21T04:12:16.875Z,100.00
2023-03-21T04:15:09.551Z,100.00
2023-03-21T04:17:40.516Z,100.00
2023-03-21T04:20:15.085Z,100.00
2023-03-21T04:22:44.926Z,100.00
2023-03-21T04:25:19.010Z,100.00
2023-03-21T04:27:58.089Z,100.00
2023-03-21T04:30:45.040Z,100.00
2023-03-21T04:33:25.843Z,100.00
2023-03-21T04:35:59.048Z,100.00
2023-03-21T04:38:30.909Z,100.00
2023-03-21T04:41:02.994Z,100.00
2023-03-21T04:43:33.187Z,100.00
2023-03-21T04:46:01.372Z,100.00
2023-03-21T04:48:29.944Z,100.00
2023-03-21T04:51:00.651Z,100.00
2023-03-21T04:53:30.572Z,100.00
2023-03-21T04:55:58.738Z,100.00
2023-03-21T04:58:27.037Z,100.00
2023-03-21T05:00:57.391Z,100.00
2023-03-21T05:03:25.665Z,100.00
2023-03-21T05:05:53.806Z,100.00
2023-03-21T05:08:22.232Z,100.00
2023-03-21T05:10:50.401Z,100.00
2023-03-21T05:13:18.937Z,100.00
2023-03-21T05:15:47.260Z,100.00
2023-03-21T05:18:24.737Z,100.00
2023-03-21T05:21:04.437Z,100.00
2023-03-21T05:23:38.203Z,100.00
2023-03-21T05:26:08.095Z,100.00
2023-03-21T05:28:44.576Z,100.00
2023-03-21T05:31:15.813Z,100.00
2023-03-21T05:33:46.856Z,100.00
2023-03-21T05:36:19.404Z,100.00
2023-03-21T05:38:47.686Z,100.00
2023-03-21T05:41:19.355Z,100.00
2023-03-21T05:43:48.574Z,100.00
2023-03-21T05:46:18.384Z,100.00
2023-03-21T05:48:48.417Z,100.00
2023-03-21T05:51:18.942Z,100.00
2023-03-21T05:53:48.445Z,100.00
2023-03-21T05:56:17.689Z,100.00
2023-03-21T05:58:55.685Z,100.00
2023-03-21T06:01:25.478Z,100.00
2023-03-21T06:04:04.097Z,100.00
2023-03-21T06:06:32.487Z,100.00
2023-03-21T06:09:02.284Z,100.00
2023-03-21T06:11:34.563Z,100.00
2023-03-21T06:14:24.230Z,100.00
2023-03-21T06:17:15.878Z,100.00
2023-03-21T06:19:51.359Z,100.00
2023-03-21T06:22:25.401Z,100.00
2023-03-21T06:24:53.893Z,100.00
2023-03-21T06:27:22.062Z,100.00
2023-03-21T06:29:55.688Z,100.00
2023-03-21T06:32:24.695Z,100.00
2023-03-21T06:34:59.515Z,100.00
2023-03-21T06:37:28.038Z,100.00
2023-03-21T06:39:56.403Z,100.00
2023-03-21T06:42:25.750Z,100.00
2023-03-21T06:44:59.962Z,100.00
2023-03-21T06:47:28.882Z,100.00
2023-03-21T06:49:59.193Z,100.00
2023-03-21T06:52:27.346Z,100.00
2023-03-21T06:54:55.538Z,100.00
2023-03-21T06:57:23.693Z,100.00
2023-03-21T06:59:52.203Z,99.81
2023-03-21T07:02:22.646Z,100.00
2023-03-21T07:05:10.982Z,100.00
2023-03-21T07:07:39.537Z,100.00
2023-03-21T07:10:10.721Z,99.83
2023-03-21T07:12:47.452Z,99.87
2023-03-21T07:15:38.316Z,99.47
2023-03-21T07:18:07.977Z,99.64
2023-03-21T07:20:38.929Z,98.89
2023-03-21T07:23:07.335Z,98.88
2023-03-21T07:25:36.006Z,98.49
2023-03-21T07:28:09.028Z,97.89
2023-03-21T07:30:37.857Z,96.86
2023-03-21T07:33:07.094Z,96.43
2023-03-21T07:35:37.596Z,96.54
2023-03-21T07:38:07.828Z,96.25
2023-03-21T07:40:36.398Z,97.09
2023-03-21T07:43:04.930Z,96.82
2023-03-21T07:45:35.962Z,96.38
2023-03-21T07:48:09.640Z,95.72
2023-03-21T07:50:39.663Z,95.47
2023-03-21T07:53:08.511Z,95.04
2023-03-21T07:55:37.038Z,94.86
2023-03-21T07:58:06.122Z,94.21
2023-03-21T08:00:34.729Z,93.45
2023-03-21T08:03:02.964Z,93.93
2023-03-21T08:05:36.194Z,93.80
2023-03-21T08:08:07.092Z,92.69
2023-03-21T08:10:36.013Z,92.46
2023-03-21T08:13:04.771Z,92.21
2023-03-21T08:15:32.975Z,91.90
2023-03-21T08:18:01.782Z,91.55
2023-03-21T08:20:29.998Z,90.79
2023-03-21T08:22:58.197Z,90.16
2023-03-21T08:25:27.788Z,89.87
2023-03-21T08:27:55.929Z,89.52
2023-03-21T08:30:27.295Z,89.07
2023-03-21T08:33:00.858Z,89.32
2023-03-21T08:35:30.217Z,89.51
2023-03-21T08:37:58.507Z,88.53
2023-03-21T08:40:27.975Z,88.46
2023-03-21T08:42:56.222Z,88.25
2023-03-21T08:45:25.386Z,88.73
2023-03-21T08:47:54.141Z,88.08
2023-03-21T08:50:25.034Z,87.77
2023-03-21T08:52:53.416Z,87.67
2023-03-21T08:55:21.561Z,87.64
2023-03-21T08:57:51.037Z,87.69
2023-03-21T09:00:20.719Z,87.46
2023-03-21T09:02:51.495Z,87.40
2023-03-21T09:05:19.974Z,88.23
2023-03-21T09:07:53.051Z,87.43
2023-03-21T09:10:23.326Z,87.83
2023-03-21T09:12:54.814Z,87.47
2023-03-21T09:15:24.914Z,87.37
2023-03-21T09:17:54.245Z,87.36
2023-03-21T09:20:26.516Z,87.22
2023-03-21T09:22:55.300Z,86.65
2023-03-21T09:25:24.639Z,86.82
2023-03-21T09:27:54.459Z,86.57
2023-03-21T09:30:24.866Z,86.89
2023-03-21T09:32:55.925Z,85.62
2023-03-21T09:35:27.078Z,86.05
2023-03-21T09:37:58.995Z,86.88
2023-03-21T09:40:41.379Z,86.62
2023-03-21T09:43:25.037Z,86.83
2023-03-21T09:46:00.110Z,87.29
2023-03-21T09:48:39.596Z,87.48
2023-03-21T09:51:18.000Z,87.44
2023-03-21T09:53:50.026Z,87.23
2023-03-21T09:56:19.125Z,86.45
2023-03-21T09:58:53.152Z,86.30
2023-03-21T10:01:29.855Z,86.83
2023-03-21T10:04:01.332Z,86.60
2023-03-21T10:06:31.917Z,86.61
2023-03-21T10:09:07.330Z,87.08
2023-03-21T10:11:44.340Z,86.59
2023-03-21T10:14:20.257Z,86.57
2023-03-21T10:16:52.488Z,86.45
2023-03-21T10:19:21.193Z,86.76
2023-03-21T10:22:06.954Z,85.57
2023-03-21T10:24:35.985Z,85.63
2023-03-21T10:27:05.799Z,85.72
2023-03-21T10:29:43.296Z,85.76
2023-03-21T10:32:14.796Z,84.88
2023-03-21T10:34:47.026Z,84.27
2023-03-21T10:37:16.784Z,84.78
2023-03-21T10:39:47.604Z,84.68
2023-03-21T10:42:21.430Z,84.56
2023-03-21T10:44:52.743Z,84.47
2023-03-21T10:47:23.060Z,85.57
2023-03-21T10:50:06.821Z,86.30
2023-03-21T10:52:37.168Z,86.30
2023-03-21T10:55:16.558Z,86.92
2023-03-21T10:57:46.055Z,86.73
2023-03-21T11:00:22.535Z,85.69
2023-03-21T11:02:52.709Z,84.42
2023-03-21T11:05:25.478Z,83.81
2023-03-21T11:08:00.679Z,83.32
2023-03-21T11:10:31.168Z,84.54
2023-03-21T11:13:04.919Z,83.65
2023-03-21T11:15:42.581Z,84.28
2023-03-21T11:18:20.125Z,85.15
2023-03-21T11:20:53.926Z,84.39
2023-03-21T11:23:26.972Z,83.70
2023-03-21T11:25:55.851Z,82.23
2023-03-21T11:28:33.261Z,81.41
2023-03-21T11:31:04.591Z,81.56
2023-03-21T11:33:36.615Z,82.27
2023-03-21T11:36:07.673Z,82.28
2023-03-21T11:38:39.523Z,81.56
2023-03-21T11:41:08.828Z,81.42
2023-03-21T11:43:38.312Z,79.83
2023-03-21T11:46:10.211Z,78.70
2023-03-21T11:48:42.177Z,78.50
2023-03-21T11:51:21.408Z,79.55
2023-03-21T11:53:58.392Z,79.15
2023-03-21T11:56:29.460Z,79.91
2023-03-21T11:59:19.582Z,80.31
2023-03-21T12:02:05.749Z,80.79
2023-03-21T12:04:41.906Z,81.56
2023-03-21T12:07:41.543Z,80.89
2023-03-21T12:10:33.991Z,80.48
2023-03-21T12:13:14.440Z,81.05
2023-03-21T12:15:53.795Z,80.97
2023-03-21T12:18:41.259Z,82.42
2023-03-21T12:21:17.748Z,81.82
2023-03-21T12:24:00.256Z,81.39
2023-03-21T12:26:32.056Z,82.13
2023-03-21T12:29:18.256Z,82.04
2023-03-21T12:31:59.249Z,81.85
2023-03-21T12:34:51.037Z,82.90
2023-03-21T12:37:27.110Z,83.53
2023-03-21T12:40:01.447Z,84.35
2023-03-21T12:42:47.326Z,84.04
2023-03-21T12:45:21.454Z,84.41
2023-03-21T12:47:55.728Z,86.08
2023-03-21T12:50:28.728Z,87.41
2023-03-21T12:53:00.876Z,87.58
2023-03-21T12:55:32.701Z,88.29
2023-03-21T12:58:05.895Z,87.86
2023-03-21T13:00:39.736Z,87.10
2023-03-21T13:03:13.563Z,86.70
2023-03-21T13:05:47.641Z,86.15
2023-03-21T13:08:22.398Z,86.49
2023-03-21T13:10:50.685Z,85.60
2023-03-21T13:13:27.164Z,86.71
2023-03-21T13:16:03.818Z,87.08
2023-03-21T13:18:50.172Z,87.34
2023-03-21T13:21:26.978Z,87.73
2023-03-21T13:24:03.097Z,87.22
2023-03-21T13:26:39.769Z,86.97
2023-03-21T13:29:15.974Z,86.19
2023-03-21T13:31:52.518Z,85.66
2023-03-21T13:34:23.454Z,85.96
2023-03-21T13:36:53.740Z,86.43
2023-03-21T13:39:27.512Z,86.39
2023-03-21T13:41:56.635Z,86.01
2023-03-21T13:44:33.156Z,85.59
2023-03-21T13:47:03.456Z,85.24
2023-03-21T13:49:35.100Z,84.84
2023-03-21T13:52:28.190Z,84.75
2023-03-21T13:54:57.548Z,84.43
2023-03-21T13:57:39.731Z,84.92
2023-03-21T14:00:24.153Z,84.51
2023-03-21T14:02:59.690Z,84.39
2023-03-21T14:05:28.975Z,84.31
2023-03-21T14:08:12.695Z,84.09
2023-03-21T14:10:46.573Z,84.50
2023-03-21T14:13:18.300Z,84.92
2023-03-21T14:15:55.172Z,84.44
2023-03-21T14:18:52.450Z,84.60
2023-03-21T14:21:23.720Z,84.66
2023-03-21T14:24:02.284Z,85.09
2023-03-21T14:26:34.305Z,85.02
2023-03-21T14:29:09.266Z,84.76
2023-03-21T14:31:41.163Z,85.47
2023-03-21T14:34:11.404Z,85.89
2023-03-21T14:36:45.784Z,85.58
2023-03-21T14:39:24.061Z,85.86
2023-03-21T14:41:55.470Z,86.61
2023-03-21T14:44:28.908Z,86.31
2023-03-21T14:47:02.279Z,85.50
2023-03-21T14:49:32.554Z,85.09
2023-03-21T14:52:06.726Z,85.16
2023-03-21T14:54:38.209Z,85.09
2023-03-21T14:57:11.337Z,85.15
2023-03-21T14:59:42.163Z,84.82
2023-03-21T15:02:18.062Z,85.52
2023-03-21T15:04:48.056Z,85.43
2023-03-21T15:07:26.020Z,85.47
2023-03-21T15:09:57.364Z,85.13
2023-03-21T15:12:25.531Z,85.27
2023-03-21T15:14:55.204Z,84.23
2023-03-21T15:17:25.472Z,83.66
2023-03-21T15:19:53.627Z,83.69
2023-03-21T15:22:30.288Z,83.98
2023-03-21T15:25:03.529Z,84.10
2023-03-21T15:27:36.242Z,84.86
2023-03-21T15:30:05.555Z,85.58
2023-03-21T15:32:37.513Z,85.64
2023-03-21T15:35:09.185Z,85.84
2023-03-21T15:37:38.533Z,86.08
2023-03-21T15:40:19.334Z,85.95
2023-03-21T15:42:47.587Z,85.92
2023-03-21T15:45:21.315Z,86.16
2023-03-21T15:47:55.572Z,85.65
2023-03-21T15:50:29.445Z,85.82
2023-03-21T15:53:01.201Z,85.66
2023-03-21T15:55:35.348Z,85.78
2023-03-21T15:58:07.277Z,86.00
2023-03-21T16:00:40.748Z,86.49
2023-03-21T16:03:17.590Z,86.38
2023-03-21T16:06:04.374Z,87.21
2023-03-21T16:08:35.829Z,87.50
2023-03-21T16:11:14.956Z,88.05
2023-03-21T16:13:43.172Z,88.15
2023-03-21T16:16:17.860Z,88.64
2023-03-21T16:18:46.086Z,89.24
2023-03-21T16:21:16.039Z,89.09
2023-03-21T16:23:44.177Z,89.24
2023-03-21T16:26:16.479Z,89.46
2023-03-21T16:28:45.466Z,89.67
2023-03-21T16:31:16.196Z,88.99
2023-03-21T16:33:44.873Z,89.03
2023-03-21T16:36:15.501Z,88.92
2023-03-21T16:38:43.662Z,89.37
2023-03-21T16:41:14.288Z,89.73
2023-03-21T16:43:43.834Z,90.02
2023-03-21T16:46:14.233Z,90.18
2023-03-21T16:48:43.308Z,90.74
2023-03-21T16:51:14.739Z,91.14
2023-03-21T16:53:42.998Z,91.55
2023-03-21T16:56:18.016Z,90.88
2023-03-21T16:58:46.404Z,91.02
2023-03-21T17:01:16.472Z,91.79
2023-03-21T17:03:44.632Z,91.75
2023-03-21T17:06:17.519Z,91.91
2023-03-21T17:08:46.213Z,91.93
2023-03-21T17:11:19.999Z,92.00
2023-03-21T17:13:48.865Z,92.02
2023-03-21T17:16:20.728Z,91.40
2023-03-21T17:18:49.135Z,91.47
2023-03-21T17:21:19.776Z,91.85
2023-03-21T17:23:48.481Z,91.70
2023-03-21T17:26:21.497Z,92.14
2023-03-21T17:28:50.546Z,92.42
2023-03-21T17:31:20.544Z,92.35
2023-03-21T17:33:49.420Z,92.76
2023-03-21T17:36:20.252Z,93.17
2023-03-21T17:38:48.534Z,93.94
2023-03-21T17:41:19.703Z,94.58
2023-03-21T17:43:48.093Z,95.19
2023-03-21T17:46:19.711Z,95.30
2023-03-21T17:48:47.909Z,95.48
2023-03-21T17:51:17.638Z,95.69
2023-03-21T17:53:48.296Z,95.84
2023-03-21T17:56:21.148Z,96.35
2023-03-21T17:58:49.901Z,97.03
2023-03-21T18:01:18.075Z,97.61
2023-03-21T18:03:46.392Z,97.49
2023-03-21T18:06:17.150Z,97.44
2023-03-21T18:08:46.069Z,97.57
2023-03-21T18:11:15.588Z,97.75
2023-03-21T18:13:45.693Z,97.92
2023-03-21T18:16:16.040Z,98.17
2023-03-21T18:18:46.560Z,97.79
2023-03-21T18:21:18.965Z,97.93
2023-03-21T18:23:48.608Z,98.31
2023-03-21T18:26:22.891Z,98.24
2023-03-21T18:29:43.896Z,98.00
2023-03-21T18:31:43.868Z,97.96
2023-03-21T18:34:15.365Z,98.30
2023-03-21T18:36:43.582Z,98.01
2023-03-21T18:39:13.224Z,98.22
2023-03-21T18:41:41.383Z,98.56
2023-03-21T18:44:22.606Z,98.71
2023-03-21T18:46:53.204Z,98.87
2023-03-21T18:50:02.110Z,99.06
2023-03-21T18:52:10.022Z,99.26
2023-03-21T18:54:38.583Z,99.39
2023-03-21T18:59:59.092Z,99.70
2023-03-21T19:02:27.436Z,99.93
2023-03-21T19:04:57.868Z,100.00
2023-03-21T19:07:26.405Z,100.00
2023-03-21T19:10:16.042Z,100.00
2023-03-21T19:12:43.256Z,100.00
2023-03-21T19:15:13.292Z,100.00
2023-03-21T19:20:30.013Z,100.00
2023-03-21T19:22:58.209Z,100.00
2023-03-21T19:25:26.573Z,100.00
2023-03-21T19:27:55.041Z,100.00
2023-03-21T19:30:24.750Z,100.00
2023-03-21T19:32:52.891Z,100.00
2023-03-21T19:35:21.791Z,100.00
2023-03-21T19:37:50.030Z,100.00
2023-03-21T19:40:19.820Z,100.00
2023-03-21T19:42:47.990Z,100.00
2023-03-21T19:45:16.338Z,100.00
2023-03-21T19:47:46.273Z,100.00
2023-03-21T19:53:02.563Z,100.00
2023-03-21T19:55:30.893Z,100.00
2023-03-21T19:57:59.431Z,100.00
2023-03-21T20:00:27.921Z,100.00
2023-03-21T20:02:57.402Z,100.00
2023-03-21T20:05:26.123Z,100.00
2023-03-21T20:07:57.210Z,100.00
2023-03-21T20:10:27.546Z,100.00
2023-03-21T20:12:55.815Z,100.00
2023-03-21T20:15:26.834Z,100.00
2023-03-21T20:17:58.668Z,100.00
2023-03-21T20:20:27.013Z,100.00
2023-03-21T20:23:06.692Z,100.00
2023-03-21T20:25:36.472Z,100.00
2023-03-21T20:28:25.825Z,100.00
2023-03-21T20:30:56.991Z,100.00
2023-03-21T20:33:28.030Z,100.00
2023-03-21T20:38:47.634Z,100.00
2023-03-21T20:41:16.044Z,100.00
2023-03-21T20:46:32.862Z,100.00
2023-03-21T20:49:02.380Z,100.00
2023-03-21T20:52:40.853Z,100.00
2023-03-21T20:54:18.764Z,100.00
2023-03-21T20:56:47.847Z,100.00
2023-03-21T20:59:25.558Z,100.00
2023-03-21T21:01:54.733Z,100.00
2023-03-21T21:04:42.826Z,100.00
2023-03-21T21:07:16.037Z,100.00
2023-03-21T21:09:45.039Z,100.00
2023-03-21T21:12:14.980Z,100.00
2023-03-21T21:14:43.672Z,100.00
2023-03-21T21:17:46.946Z,100.00
2023-03-21T21:20:02.238Z,100.00
2023-03-21T21:22:30.436Z,100.00
2023-03-21T21:24:58.640Z,100.00
2023-03-21T21:27:26.837Z,100.00
2023-03-21T21:29:54.960Z,100.00
2023-03-21T21:32:23.424Z,100.00
2023-03-21T21:34:52.241Z,100.00
2023-03-21T21:37:22.682Z,100.00
2023-03-21T21:39:50.923Z,100.00
2023-03-21T21:42:19.370Z,100.00
2023-03-21T21:44:47.592Z,100.00
2023-03-21T21:47:15.913Z,100.00
2023-03-21T21:49:44.079Z,100.00
2023-03-21T21:52:13.635Z,100.00
2023-03-21T21:54:45.723Z,100.00
2023-03-21T21:57:14.570Z,100.00
2023-03-21T21:59:42.870Z,100.00
2023-03-21T22:02:13.947Z,100.00
2023-03-21T22:04:42.146Z,100.00
2023-03-21T22:07:14.353Z,100.00
2023-03-21T22:09:45.583Z,100.00
2023-03-21T22:12:13.713Z,100.00
2023-03-21T22:14:41.851Z,100.00
2023-03-21T22:17:10.098Z,100.00
2023-03-21T22:19:40.237Z,100.00
2023-03-21T22:22:08.688Z,100.00
2023-03-21T22:24:37.485Z,100.00
2023-03-21T22:27:07.013Z,100.00
2023-03-21T22:29:35.333Z,100.00
2023-03-21T22:32:03.574Z,100.00
2023-03-21T22:34:32.289Z,100.00
2023-03-21T22:37:02.542Z,100.00
2023-03-21T22:39:31.081Z,100.00
2023-03-21T22:42:00.921Z,100.00
2023-03-21T22:44:34.886Z,100.00
2023-03-21T22:47:03.524Z,100.00
2023-03-21T22:49:32.787Z,100.00
2023-03-21T22:52:01.548Z,100.00
2023-03-21T22:54:29.796Z,100.00
2023-03-21T22:56:58.089Z,100.00
2023-03-21T22:59:26.827Z,100.00
2023-03-21T23:01:56.691Z,100.00
2023-03-21T23:04:26.026Z,100.00
2023-03-21T23:06:54.693Z,100.00
2023-03-21T23:09:22.985Z,100.00
2023-03-21T23:11:51.802Z,100.00
2023-03-21T23:14:20.878Z,100.00
2023-03-21T23:16:50.661Z,100.00
2023-03-21T23:19:21.173Z,100.00
2023-03-21T23:21:50.128Z,100.00
2023-03-21T23:24:18.296Z,100.00
2023-03-21T23:26:46.472Z,100.00
2023-03-21T23:29:14.816Z,100.00
2023-03-21T23:31:43.021Z,100.00
2023-03-21T23:34:11.306Z,100.00
2023-03-21T23:36:40.961Z,100.00
2023-03-21T23:39:09.438Z,100.00
2023-03-21T23:41:37.776Z,100.00
2023-03-21T23:44:06.317Z,100.00
2023-03-21T23:46:34.557Z,100.00
2023-03-21T23:49:03.309Z,100.00
2023-03-21T23:51:31.463Z,100.00
2023-03-21T23:54:01.098Z,100.00
2023-03-21T23:56:29.398Z,100.00
2023-03-21T23:58:58.249Z,100.00
